Time;durP1;ratioP1;P1;durP2;ratioP2;P2;SDS_P1;SDS_P2;PMS_P1;PMS_P2;Temp;Humidity;BMP_temperature;BMP_pressure;BME280_temperature;BME280_humidity;BME280_pressure;Samples;Min_cycle;Max_cycle;Signal;HPM_P1;HPM_P2
2022/12/18 04:00:59;;;;;;;24.10;16.33;;;-6.10;79.50;;;;;;5892533;23;20503;-72
2022/12/18 04:03:29;;;;;;;18.03;12.67;;;-6.20;79.10;;;;;;5013541;28;20516;-72
2022/12/18 04:05:57;;;;;;;21.87;14.77;;;-6.10;79.40;;;;;;5013424;28;20474;-73
2022/12/18 04:08:25;;;;;;;22.90;14.70;;;-6.10;78.90;;;;;;5013086;28;20458;-72
2022/12/18 04:10:52;;;;;;;19.13;15.20;;;-6.00;78.80;;;;;;5013296;28;20473;-72
2022/12/18 04:13:24;;;;;;;23.53;14.83;;;-5.90;78.50;;;;;;5013275;28;20534;-72
2022/12/18 04:15:50;;;;;;;25.37;13.67;;;-5.80;78.20;;;;;;5013958;28;20432;-72
2022/12/18 04:18:19;;;;;;;22.73;14.83;;;-5.90;77.70;;;;;;5013323;28;20449;-72
2022/12/18 04:20:46;;;;;;;25.63;15.50;;;-6.50;78.00;;;;;;5013214;28;20468;-72
2022/12/18 04:23:13;;;;;;;19.10;14.10;;;-6.80;79.30;;;;;;5015618;28;20449;-71
2022/12/18 04:25:39;;;;;;;20.77;14.33;;;-7.10;80.50;;;;;;5016979;28;20450;-72
2022/12/18 04:28:06;;;;;;;24.03;15.27;;;-7.20;81.20;;;;;;5017153;28;20454;-72
2022/12/18 04:30:33;;;;;;;25.67;16.47;;;-7.20;80.90;;;;;;5016690;28;20455;-72
2022/12/18 04:32:59;;;;;;;31.27;17.30;;;-7.40;80.30;;;;;;5017105;28;20452;-72
2022/12/18 04:35:27;;;;;;;25.60;18.87;;;-7.60;79.90;;;;;;5016931;28;20483;-72
2022/12/18 04:37:54;;;;;;;23.43;17.23;;;-7.70;79.70;;;;;;5016941;28;20451;-72
2022/12/18 04:40:21;;;;;;;41.37;23.70;;;-8.00;79.70;;;;;;5016663;28;20439;-72
2022/12/18 04:42:48;;;;;;;19.00;14.90;;;-8.20;80.70;;;;;;5016858;28;20456;-72
2022/12/18 04:45:14;;;;;;;18.20;12.30;;;-8.30;82.30;;;;;;5016787;28;20474;-71
2022/12/18 04:47:41;;;;;;;9.97;9.03;;;-8.40;83.60;;;;;;5016475;28;20451;-72
2022/12/18 04:50:08;;;;;;;12.57;10.10;;;-8.30;83.90;;;;;;5016750;28;20449;-72
2022/12/18 04:52:36;;;;;;;8.40;7.50;;;-8.30;83.20;;;;;;5016637;28;20474;-72
2022/12/18 04:55:03;;;;;;;10.97;9.53;;;-8.20;83.10;;;;;;5016559;28;20503;-72
2022/12/18 04:57:30;;;;;;;9.90;7.90;;;-8.20;82.00;;;;;;5016616;28;20482;-72
2022/12/18 04:59:57;;;;;;;8.37;7.40;;;-8.40;82.30;;;;;;5016535;28;20451;-71
2022/12/18 05:02:23;;;;;;;23.60;15.67;;;-8.60;83.00;;;;;;5016024;28;20566;-72
2022/12/18 05:04:50;;;;;;;9.80;8.87;;;-8.50;83.30;;;;;;5016455;28;20793;-71
2022/12/18 05:07:17;;;;;;;11.80;9.17;;;-8.30;82.80;;;;;;5016395;28;20474;-71
2022/12/18 05:09:45;;;;;;;17.10;10.13;;;-8.30;81.60;;;;;;5016362;28;20523;-72
2022/12/18 05:12:11;;;;;;;15.03;11.00;;;-8.10;81.30;;;;;;5016271;28;20474;-72
2022/12/18 05:14:38;;;;;;;15.20;10.37;;;-8.10;80.50;;;;;;5015886;28;21018;-72
2022/12/18 05:17:05;;;;;;;12.30;10.83;;;-7.90;80.40;;;;;;5016246;28;20534;-72
2022/12/18 05:19:31;;;;;;;11.67;10.47;;;-7.60;79.70;;;;;;5016178;28;20459;-71
2022/12/18 05:21:58;;;;;;;11.70;9.60;;;-7.40;78.90;;;;;;5016083;28;20471;-72
2022/12/18 05:24:25;;;;;;;12.40;9.40;;;-7.40;78.00;;;;;;5015800;28;20451;-72
2022/12/18 05:26:53;;;;;;;11.87;10.63;;;-7.40;77.60;;;;;;5016006;28;20458;-71
2022/12/18 05:29:20;;;;;;;12.60;10.87;;;-7.40;77.50;;;;;;5016006;28;20440;-71
2022/12/18 05:31:46;;;;;;;11.73;10.63;;;-7.50;77.20;;;;;;5015793;28;20475;-71
2022/12/18 05:34:13;;;;;;;12.33;11.07;;;-7.30;77.20;;;;;;5014516;28;20581;-71
2022/12/18 05:36:40;;;;;;;11.33;10.13;;;-7.10;76.60;;;;;;5015857;28;20455;-71
2022/12/18 05:39:07;;;;;;;10.67;9.53;;;-7.00;76.60;;;;;;5015800;28;20452;-71
2022/12/18 05:41:33;;;;;;;14.33;11.00;;;-7.00;76.40;;;;;;5015686;28;20475;-72
2022/12/18 05:44:01;;;;;;;14.30;10.70;;;-6.90;76.00;;;;;;5015725;28;20451;-71
2022/12/18 05:46:29;;;;;;;13.80;10.70;;;-6.80;75.50;;;;;;5015361;28;20948;-71
2022/12/18 05:48:55;;;;;;;15.60;10.70;;;-6.70;75.50;;;;;;5015620;28;20558;-71
2022/12/18 05:51:23;;;;;;;9.37;8.07;;;-6.70;75.00;;;;;;5015529;28;20476;-72
2022/12/18 05:53:49;;;;;;;10.20;8.97;;;-6.70;75.50;;;;;;5015182;28;20849;-72
2022/12/18 05:56:19;;;;;;;16.10;10.80;;;-6.90;75.50;;;;;;5015491;28;20444;-72
2022/12/18 05:58:46;;;;;;;13.03;9.63;;;-7.10;76.30;;;;;;5015149;28;20833;-71
2022/12/18 06:01:16;;;;;;;11.43;10.03;;;-7.40;76.30;;;;;;5014885;28;20853;-72
2022/12/18 06:03:44;;;;;;;11.33;9.23;;;-7.70;77.90;;;;;;5015388;28;20433;-72
2022/12/18 06:06:15;;;;;;;12.33;9.80;;;-7.90;79.40;;;;;;5015318;28;20459;-71
2022/12/18 06:08:42;;;;;;;13.37;11.10;;;-7.90;79.90;;;;;;5015255;28;20571;-72
2022/12/18 06:11:08;;;;;;;15.77;11.67;;;-7.60;79.60;;;;;;5015144;28;20471;-72
2022/12/18 06:13:35;;;;;;;13.23;10.50;;;-7.40;78.60;;;;;;5014858;28;20626;-72
2022/12/18 06:16:03;;;;;;;13.80;11.20;;;-7.30;77.30;;;;;;5015050;28;20852;-72
2022/12/18 06:18:32;;;;;;;12.13;9.77;;;-7.10;76.40;;;;;;5015062;28;20454;-71
2022/12/18 06:21:00;;;;;;;12.57;10.10;;;-7.00;76.10;;;;;;5014958;28;20468;-72
2022/12/18 06:23:27;;;;;;;14.53;9.83;;;-7.00;75.70;;;;;;5014963;28;20445;-71
2022/12/18 06:25:54;;;;;;;13.30;9.60;;;-6.90;75.40;;;;;;5014993;28;20879;-71
2022/12/18 06:28:20;;;;;;;14.10;10.90;;;-6.90;75.40;;;;;;5014887;28;20455;-72
2022/12/18 06:30:48;;;;;;;14.13;10.23;;;-6.80;75.50;;;;;;5014745;28;20471;-71
2022/12/18 06:33:15;;;;;;;11.57;9.03;;;-6.80;75.60;;;;;;5014784;28;20441;-72
2022/12/18 06:35:43;;;;;;;11.33;9.23;;;-6.70;75.30;;;;;;5014630;28;20491;-71
2022/12/18 06:38:10;;;;;;;8.07;7.10;;;-6.60;75.10;;;;;;5014676;28;20449;-71
2022/12/18 06:40:38;;;;;;;8.83;7.93;;;-6.50;75.30;;;;;;5014605;28;20838;-72
2022/12/18 06:43:05;;;;;;;9.87;8.20;;;-6.40;75.40;;;;;;5014677;28;20480;-71
2022/12/18 06:45:32;;;;;;;11.90;10.00;;;-6.40;75.30;;;;;;5014127;28;20494;-71
2022/12/18 06:47:58;;;;;;;15.33;10.33;;;-6.30;75.10;;;;;;5014245;28;20937;-72
2022/12/18 06:50:25;;;;;;;11.03;9.77;;;-6.30;75.00;;;;;;5014387;28;20455;-70
2022/12/18 06:52:53;;;;;;;11.97;8.10;;;-6.20;75.10;;;;;;5014169;28;20448;-72
2022/12/18 06:55:20;;;;;;;10.17;9.17;;;-6.10;75.20;;;;;;5014295;28;20484;-71
2022/12/18 06:57:47;;;;;;;10.73;8.90;;;-6.10;75.20;;;;;;5014339;28;20456;-71
2022/12/18 07:00:14;;;;;;;10.63;8.77;;;-6.10;75.00;;;;;;5014108;28;20952;-72
2022/12/18 07:02:41;;;;;;;11.50;10.03;;;-6.00;75.20;;;;;;5013894;28;20487;-72
2022/12/18 07:05:08;;;;;;;9.57;8.47;;;-6.00;75.30;;;;;;5014216;28;20451;-71
2022/12/18 07:07:35;;;;;;;10.27;9.27;;;-5.90;75.00;;;;;;5014186;28;20448;-71
2022/12/18 07:10:04;;;;;;;9.43;8.37;;;-6.00;74.60;;;;;;5014133;28;20459;-71
2022/12/18 07:12:31;;;;;;;12.07;8.70;;;-6.00;74.60;;;;;;5014040;28;20468;-72
2022/12/18 07:14:57;;;;;;;10.83;9.83;;;-5.90;74.90;;;;;;5013990;28;20492;-71
2022/12/18 07:17:24;;;;;;;10.27;8.03;;;-5.90;74.80;;;;;;5014037;28;20456;-71
2022/12/18 07:19:51;;;;;;;12.00;10.20;;;-5.80;75.20;;;;;;5013675;28;20444;-72
2022/12/18 07:22:17;;;;;;;12.33;9.57;;;-5.80;75.20;;;;;;5013876;28;20841;-72
2022/12/18 07:24:44;;;;;;;13.70;9.70;;;-5.80;74.70;;;;;;5013928;28;20441;-72
2022/12/18 07:27:13;;;;;;;10.57;9.23;;;-5.80;74.90;;;;;;5013577;28;20448;-72
2022/12/18 07:29:40;;;;;;;11.20;9.67;;;-5.70;75.20;;;;;;5013555;28;20960;-72
2022/12/18 07:32:07;;;;;;;8.93;8.07;;;-5.70;75.10;;;;;;5013737;28;20468;-72
2022/12/18 07:34:34;;;;;;;9.43;8.03;;;-5.70;75.20;;;;;;5013781;28;20479;-71
2022/12/18 07:37:00;;;;;;;10.90;9.40;;;-5.70;75.50;;;;;;5013738;28;20444;-71
2022/12/18 07:39:27;;;;;;;11.00;10.00;;;-5.60;75.90;;;;;;5013687;28;20453;-72
2022/12/18 07:44:36;;;;;;;12.57;10.40;;;-5.40;75.90;;;;;;5013121;28;20874;-72
2022/12/18 07:47:03;;;;;;;12.90;10.60;;;-5.30;75.30;;;;;;5013361;28;20937;-71
2022/12/18 07:49:30;;;;;;;10.57;9.10;;;-5.50;76.40;;;;;;5013614;28;20453;-72
2022/12/18 07:51:58;;;;;;;15.37;12.73;;;-5.40;76.80;;;;;;5013504;28;20551;-72
2022/12/18 07:54:25;;;;;;;11.87;10.53;;;-5.30;77.40;;;;;;5013446;28;20464;-72
2022/12/18 07:56:52;;;;;;;15.47;10.53;;;-5.20;77.90;;;;;;5012722;28;20452;-70
2022/12/18 07:59:19;;;;;;;14.00;11.30;;;-5.10;77.50;;;;;;5013177;28;20452;-71
2022/12/18 08:01:47;;;;;;;13.80;11.13;;;-4.90;77.30;;;;;;5012990;28;20997;-71
2022/12/18 08:04:14;;;;;;;11.93;10.27;;;-4.90;76.30;;;;;;5013459;28;20452;-72
2022/12/18 08:06:40;;;;;;;13.73;11.20;;;-4.80;76.70;;;;;;5013442;28;20441;-72
2022/12/18 08:09:08;;;;;;;12.77;10.20;;;-4.80;75.90;;;;;;5013429;28;20451;-72
2022/12/18 08:11:35;;;;;;;11.20;10.10;;;-5.00;76.30;;;;;;5013091;28;20555;-71
2022/12/18 08:14:02;;;;;;;12.87;10.87;;;-4.90;76.80;;;;;;5013373;28;20445;-74
2022/12/18 08:16:28;;;;;;;13.10;10.23;;;-4.80;76.30;;;;;;5013236;28;20476;-73
2022/12/18 08:18:57;;;;;;;11.87;10.70;;;-4.90;75.40;;;;;;5013327;28;20444;-74
2022/12/18 08:21:27;;;;;;;12.80;11.40;;;-5.00;76.50;;;;;;5013227;28;20468;-73
2022/12/18 08:23:55;;;;;;;12.93;11.60;;;-4.60;76.90;;;;;;5013257;28;20455;-74
2022/12/18 08:26:22;;;;;;;12.03;10.83;;;-4.40;76.00;;;;;;5013284;28;20448;-74
2022/12/18 08:28:49;;;;;;;12.47;11.17;;;-4.20;75.30;;;;;;5013280;28;20455;-73
2022/12/18 08:31:16;;;;;;;12.50;11.20;;;-4.10;75.30;;;;;;5013244;28;20468;-74
2022/12/18 08:33:43;;;;;;;11.57;10.47;;;-4.10;74.90;;;;;;5013433;28;20792;-73
2022/12/18 08:36:11;;;;;;;14.10;11.40;;;-4.40;75.70;;;;;;5013167;28;20844;-72
2022/12/18 08:38:38;;;;;;;14.37;11.20;;;-4.60;76.30;;;;;;5013152;28;20444;-73
2022/12/18 08:41:06;;;;;;;12.70;10.60;;;-4.40;77.00;;;;;;5013014;28;20471;-72
2022/12/18 08:46:18;;;;;;;13.07;11.33;;;-4.20;76.40;;;;;;5012979;28;20403;-73
2022/12/18 08:48:45;;;;;;;12.20;10.27;;;-4.10;76.70;;;;;;5012739;28;20823;-73
2022/12/18 08:51:13;;;;;;;15.63;11.37;;;-3.90;76.10;;;;;;5012898;28;20469;-73
2022/12/18 08:53:40;;;;;;;13.20;11.80;;;-3.50;76.50;;;;;;5012952;28;20461;-73
2022/12/18 08:56:07;;;;;;;16.13;13.17;;;-2.80;75.80;;;;;;5012858;28;20480;-73
2022/12/18 08:58:34;;;;;;;15.80;14.07;;;-2.30;72.90;;;;;;5012581;28;20453;-71
2022/12/18 09:01:02;;;;;;;15.40;13.80;;;-2.30;71.30;;;;;;5012623;28;20478;-71
2022/12/18 09:03:28;;;;;;;16.47;14.20;;;-2.50;71.20;;;;;;5012951;28;20482;-71
2022/12/18 09:05:55;;;;;;;16.87;15.27;;;-2.80;71.30;;;;;;5012772;28;20442;-71
2022/12/18 09:08:23;;;;;;;15.90;13.97;;;-3.10;72.60;;;;;;5013340;28;20448;-71
2022/12/18 09:10:51;;;;;;;15.07;12.50;;;-3.10;73.50;;;;;;5016224;28;20475;-71
2022/12/18 09:13:19;;;;;;;15.03;13.53;;;-3.10;74.10;;;;;;5015874;28;20950;-71
2022/12/18 09:15:48;;;;;;;15.17;13.57;;;-3.10;74.10;;;;;;5015907;28;20481;-71
2022/12/18 09:18:16;;;;;;;20.30;18.40;;;-3.10;74.60;;;;;;5015882;28;20813;-71
2022/12/18 09:20:43;;;;;;;21.27;19.07;;;-3.20;74.50;;;;;;5016054;28;20489;-71
2022/12/18 09:23:10;;;;;;;20.87;18.67;;;-3.40;75.00;;;;;;5016123;28;20448;-71
2022/12/18 09:25:38;;;;;;;19.27;17.23;;;-3.60;75.70;;;;;;5016067;28;20460;-71
2022/12/18 09:28:07;;;;;;;19.60;17.60;;;-3.60;76.90;;;;;;5016036;28;20451;-71
2022/12/18 09:30:34;;;;;;;19.23;17.53;;;-3.40;77.20;;;;;;5015880;28;20445;-71
2022/12/18 09:33:01;;;;;;;17.33;15.60;;;-3.40;77.10;;;;;;5015946;28;20448;-71
2022/12/18 09:35:28;;;;;;;17.03;15.20;;;-3.40;77.40;;;;;;5015790;28;20514;-71
2022/12/18 09:37:55;;;;;;;15.50;14.00;;;-3.50;77.80;;;;;;5015887;28;20477;-71
2022/12/18 09:40:25;;;;;;;13.50;12.27;;;-3.50;77.70;;;;;;5015785;28;20444;-71
2022/12/18 09:42:58;;;;;;;13.00;11.63;;;-3.50;78.00;;;;;;5015882;28;20432;-73
2022/12/18 09:45:25;;;;;;;12.50;11.20;;;-3.40;78.40;;;;;;5015770;28;20436;-73
2022/12/18 09:47:54;;;;;;;13.87;12.47;;;-3.30;78.80;;;;;;5015720;28;20453;-73
2022/12/18 09:50:28;;;;;;;14.00;11.57;;;-3.30;78.70;;;;;;5015814;28;20444;-73
2022/12/18 09:52:59;;;;;;;12.13;10.63;;;-3.50;79.70;;;;;;5015723;28;20440;-73
2022/12/18 09:55:31;;;;;;;14.03;12.70;;;-3.40;80.70;;;;;;5015651;28;20477;-73
2022/12/18 09:58:07;;;;;;;14.93;13.30;;;-3.40;81.50;;;;;;5015614;28;20441;-73
2022/12/18 10:00:34;;;;;;;14.90;13.30;;;-3.30;81.60;;;;;;5015251;28;20821;-73
2022/12/18 10:03:04;;;;;;;13.83;12.10;;;-3.20;81.40;;;;;;5015482;28;20429;-73
2022/12/18 10:05:40;;;;;;;15.10;13.07;;;-3.10;81.50;;;;;;5015371;28;20442;-73
2022/12/18 10:08:14;;;;;;;16.17;13.60;;;-2.60;81.00;;;;;;5015107;28;20984;-71
2022/12/18 10:10:47;;;;;;;15.23;12.87;;;-2.00;80.00;;;;;;5015177;28;20436;-72
2022/12/18 10:13:25;;;;;;;15.10;13.07;;;-1.70;78.10;;;;;;5015227;28;20440;-72
2022/12/18 10:16:01;;;;;;;14.97;13.47;;;-1.50;76.80;;;;;;5015330;28;20468;-72
2022/12/18 10:18:39;;;;;;;15.40;13.53;;;-1.40;77.30;;;;;;5015099;28;20432;-72
2022/12/18 10:21:12;;;;;;;15.43;12.37;;;-1.00;75.90;;;;;;5013943;28;20473;-72
2022/12/18 10:23:46;;;;;;;14.57;12.30;;;-1.80;75.90;;;;;;5015015;28;20433;-72
2022/12/18 10:26:13;;;;;;;15.20;12.83;;;-1.80;77.20;;;;;;5014894;28;20483;-72
2022/12/18 10:28:42;;;;;;;16.30;14.50;;;-1.70;78.10;;;;;;5014945;28;20544;-71
2022/12/18 10:31:15;;;;;;;16.37;13.13;;;-1.60;77.60;;;;;;5014697;28;20468;-71
2022/12/18 10:33:42;;;;;;;14.90;12.30;;;-1.40;77.50;;;;;;5014508;28;20906;-71
2022/12/18 10:36:09;;;;;;;13.03;10.90;;;-1.40;77.50;;;;;;5014627;28;20480;-72
2022/12/18 10:38:36;;;;;;;16.13;14.43;;;-1.00;76.90;;;;;;5014721;28;20449;-72
2022/12/18 10:41:05;;;;;;;15.77;13.37;;;-0.80;76.20;;;;;;5014549;28;20475;-72
2022/12/18 10:43:33;;;;;;;16.73;13.93;;;-0.90;74.70;;;;;;5014628;28;20506;-72
2022/12/18 10:46:06;;;;;;;16.20;14.60;;;-1.40;75.80;;;;;;5014452;28;20443;-71
2022/12/18 10:48:34;;;;;;;15.53;12.83;;;-1.40;77.90;;;;;;5014548;28;20472;-71
2022/12/18 10:51:01;;;;;;;15.27;11.87;;;-1.30;77.00;;;;;;5014037;28;20979;-72
2022/12/18 10:53:30;;;;;;;16.50;14.47;;;-1.40;77.50;;;;;;5014327;28;20459;-71
2022/12/18 10:56:01;;;;;;;15.47;13.87;;;-0.80;77.30;;;;;;5014281;28;20491;-72
2022/12/18 10:58:31;;;;;;;15.10;12.60;;;0.40;75.00;;;;;;5014906;28;20437;-72
2022/12/18 11:01:13;;;;;;;16.03;13.90;;;1.50;70.60;;;;;;5014034;28;20488;-73
2022/12/18 11:03:42;;;;;;;14.83;11.77;;;1.70;68.10;;;;;;5014269;28;20440;-72
2022/12/18 11:06:11;;;;;;;13.23;11.90;;;1.10;69.00;;;;;;5014160;28;20452;-72
2022/12/18 11:08:39;;;;;;;15.87;13.27;;;0.50;70.70;;;;;;5013898;28;20437;-72
2022/12/18 11:11:16;;;;;;;14.90;12.50;;;0.30;73.10;;;;;;5013998;28;20479;-72
2022/12/18 11:13:55;;;;;;;14.90;12.80;;;-0.40;74.10;;;;;;5014121;28;20428;-72
2022/12/18 11:16:24;;;;;;;17.07;13.50;;;-0.90;75.50;;;;;;5013835;28;20507;-72
2022/12/18 11:18:51;;;;;;;17.20;13.90;;;-1.30;77.30;;;;;;5014017;28;20483;-72
2022/12/18 11:21:18;;;;;;;15.93;12.83;;;-1.10;77.60;;;;;;5013963;28;20472;-72
2022/12/18 11:23:49;;;;;;;17.33;14.30;;;-1.40;77.70;;;;;;5013627;28;20503;-72
2022/12/18 11:26:15;;;;;;;15.23;13.57;;;-1.40;78.70;;;;;;5013857;28;20440;-71
2022/12/18 11:28:46;;;;;;;16.67;13.73;;;-1.30;77.90;;;;;;5013804;28;20449;-72
2022/12/18 11:31:19;;;;;;;15.40;13.60;;;-1.20;78.20;;;;;;5013291;28;20981;-72
2022/12/18 11:33:57;;;;;;;15.50;12.93;;;-1.00;78.30;;;;;;5013505;28;20928;-72
2022/12/18 11:36:25;;;;;;;15.57;12.87;;;-0.90;77.50;;;;;;5013709;28;20468;-72
2022/12/18 11:38:54;;;;;;;12.93;11.63;;;-1.10;77.90;;;;;;5013636;28;20455;-71
2022/12/18 11:42:08;;;;;;;16.43;12.30;;;-0.90;77.50;;;;;;5013552;28;20471;-72
2022/12/18 11:44:19;;;;;;;14.03;12.47;;;-0.90;78.40;;;;;;5013296;28;20532;-72
2022/12/18 11:46:50;;;;;;;16.50;12.93;;;-0.70;77.90;;;;;;5013551;28;20425;-72
2022/12/18 11:49:24;;;;;;;16.57;11.87;;;-0.60;77.00;;;;;;5013634;28;20796;-72
2022/12/18 11:51:55;;;;;;;15.93;12.23;;;-0.30;77.30;;;;;;5013548;28;20481;-71
2022/12/18 11:54:22;;;;;;;14.87;12.50;;;0.00;76.20;;;;;;5014281;28;20973;-72
2022/12/18 11:56:52;;;;;;;13.03;11.67;;;0.20;74.30;;;;;;5013373;28;20484;-72
2022/12/18 11:59:30;;;;;;;15.00;13.30;;;0.80;74.70;;;;;;5013127;28;20950;-72
2022/12/18 12:02:03;;;;;;;14.40;11.93;;;1.80;70.80;;;;;;5013162;28;20507;-73
2022/12/18 12:05:00;;;;;;;15.17;13.63;;;2.60;67.70;;;;;;5016230;28;20435;-72
2022/12/18 12:07:39;;;;;;;16.67;14.73;;;3.20;66.70;;;;;;5015913;28;20454;-72
2022/12/18 12:10:17;;;;;;;16.10;14.60;;;2.90;64.20;;;;;;5020480;28;20447;-72
2022/12/18 12:12:59;;;;;;;17.60;15.80;;;3.20;64.10;;;;;;5021209;28;20474;-72
2022/12/18 12:15:36;;;;;;;19.00;15.80;;;3.60;62.70;;;;;;5021736;28;20465;-70
2022/12/18 12:18:13;;;;;;;18.73;16.80;;;4.00;62.40;;;;;;5021097;28;20475;-73
2022/12/18 12:20:54;;;;;;;23.00;16.73;;;4.40;61.00;;;;;;5019899;28;20436;-72
2022/12/18 12:23:30;;;;;;;18.70;16.70;;;4.40;59.50;;;;;;5020383;28;20437;-71
2022/12/18 12:26:02;;;;;;;20.53;18.40;;;4.40;60.10;;;;;;5017092;28;20464;-71
2022/12/18 12:28:43;;;;;;;20.10;18.10;;;4.40;59.40;;;;;;5014909;28;20437;-72
2022/12/18 12:31:19;;;;;;;15.70;14.10;;;4.40;60.10;;;;;;5015138;28;20551;-73
2022/12/18 12:33:56;;;;;;;16.60;14.00;;;5.00;59.60;;;;;;5014501;28;20434;-73
2022/12/18 12:36:35;;;;;;;16.43;14.20;;;5.20;59.60;;;;;;5016051;28;20472;-72
2022/12/18 12:39:06;;;;;;;16.37;14.40;;;4.60;60.20;;;;;;5016134;28;20436;-73
2022/12/18 12:44:25;;;;;;;18.23;16.30;;;4.90;61.10;;;;;;5018134;28;20492;-73
2022/12/18 12:46:53;;;;;;;19.03;17.13;;;4.80;59.70;;;;;;5019169;28;20456;-72
2022/12/18 12:49:23;;;;;;;19.57;16.67;;;4.20;60.20;;;;;;5019529;28;20463;-73
2022/12/18 12:52:01;;;;;;;20.97;17.70;;;4.00;60.70;;;;;;5018828;28;20470;-71
2022/12/18 12:54:29;;;;;;;20.13;16.93;;;4.20;60.50;;;;;;5019599;28;20502;-73
2022/12/18 12:57:03;;;;;;;20.70;18.10;;;4.60;60.20;;;;;;5018797;28;21100;-73
2022/12/18 12:59:38;;;;;;;21.33;17.67;;;4.80;59.60;;;;;;5019639;28;20968;-73
2022/12/18 13:02:22;;;;;;;21.73;18.70;;;4.50;59.00;;;;;;5018389;28;20530;-71
2022/12/18 13:04:54;;;;;;;24.70;22.03;;;4.30;60.00;;;;;;5018068;28;20421;-72
2022/12/18 13:07:28;;;;;;;19.97;17.87;;;3.90;60.60;;;;;;5017925;28;20433;-71
2022/12/18 13:10:23;;;;;;;20.10;16.97;;;3.40;62.20;;;;;;5017293;28;20940;-71
2022/12/18 13:12:57;;;;;;;20.93;16.43;;;3.60;62.40;;;;;;5018110;28;20439;-71
2022/12/18 13:15:26;;;;;;;17.53;15.80;;;4.00;61.90;;;;;;5018445;28;20930;-71
2022/12/18 13:18:15;;;;;;;18.97;14.60;;;4.20;60.00;;;;;;5018718;28;20487;-71
2022/12/18 13:20:44;;;;;;;18.00;16.10;;;4.50;59.20;;;;;;5018684;28;20439;-72
2022/12/18 13:23:31;;;;;;;19.93;17.83;;;4.20;59.40;;;;;;5018210;28;20541;-71
2022/12/18 13:26:00;;;;;;;19.23;17.23;;;4.00;59.60;;;;;;5017935;28;20440;-71
2022/12/18 13:28:51;;;;;;;19.43;15.60;;;3.50;60.80;;;;;;5017486;28;20457;-72
2022/12/18 13:32:07;;;;;;;18.20;16.07;;;3.00;62.00;;;;;;5017845;28;20500;-72
2022/12/18 13:34:34;;;;;;;17.80;15.20;;;2.80;63.60;;;;;;5012980;28;20519;-72
2022/12/18 13:37:39;;;;;;;17.67;14.80;;;2.90;63.40;;;;;;5017718;28;20602;-72
2022/12/18 13:40:48;;;;;;;16.80;15.00;;;2.90;63.40;;;;;;5017382;28;20582;-71
2022/12/18 13:43:27;;;;;;;17.90;14.73;;;2.90;64.00;;;;;;5007712;28;20464;-72
2022/12/18 13:46:02;;;;;;;19.97;15.23;;;2.70;63.90;;;;;;5016362;28;20437;-73
2022/12/18 13:48:32;;;;;;;18.27;15.80;;;2.80;64.30;;;;;;5016631;28;20444;-72
2022/12/18 13:51:03;;;;;;;19.33;16.07;;;2.90;63.70;;;;;;5017640;28;20559;-72
2022/12/18 13:53:34;;;;;;;17.40;15.57;;;3.20;63.30;;;;;;5017301;28;20804;-72
2022/12/18 13:56:03;;;;;;;17.80;15.67;;;3.40;62.90;;;;;;5014474;28;20436;-72
2022/12/18 13:58:30;;;;;;;21.73;15.73;;;3.50;63.00;;;;;;5015470;28;20484;-73
2022/12/18 14:00:58;;;;;;;15.80;13.97;;;3.50;63.10;;;;;;5015212;28;20505;-72
2022/12/18 14:03:31;;;;;;;16.20;13.87;;;3.70;62.80;;;;;;5016089;28;20465;-73
2022/12/18 14:06:04;;;;;;;15.30;13.70;;;3.80;62.50;;;;;;5016958;28;20460;-73
2022/12/18 14:08:37;;;;;;;14.90;13.30;;;3.20;63.00;;;;;;5016407;28;20460;-73
2022/12/18 14:11:07;;;;;;;13.43;11.90;;;2.80;64.00;;;;;;5016650;28;20481;-74
2022/12/18 14:13:38;;;;;;;15.37;12.80;;;2.20;65.00;;;;;;5016682;28;20471;-74
2022/12/18 14:16:07;;;;;;;15.03;13.17;;;2.30;65.50;;;;;;5016922;28;20440;-72
2022/12/18 14:18:43;;;;;;;15.00;13.50;;;2.30;65.30;;;;;;5016064;28;20579;-73
2022/12/18 14:21:18;;;;;;;13.50;11.30;;;1.90;66.30;;;;;;5017062;28;20527;-73
2022/12/18 14:23:48;;;;;;;14.80;13.30;;;1.30;67.50;;;;;;5017141;28;20436;-72
2022/12/18 14:26:26;;;;;;;16.37;12.20;;;0.80;69.30;;;;;;5016897;28;20444;-72
2022/12/18 14:29:26;;;;;;;14.37;12.93;;;0.80;69.70;;;;;;5017190;28;20476;-73
2022/12/18 14:32:10;;;;;;;17.10;14.30;;;0.50;71.00;;;;;;5016818;28;20475;-71
2022/12/18 14:34:37;;;;;;;13.90;12.37;;;0.60;71.30;;;;;;5017366;28;20443;-72
2022/12/18 14:37:09;;;;;;;15.03;13.43;;;0.50;71.50;;;;;;5016648;28;20488;-72
2022/12/18 14:39:37;;;;;;;16.27;14.40;;;0.60;71.30;;;;;;5016088;28;20804;-72
2022/12/18 14:42:05;;;;;;;17.73;13.80;;;0.50;71.30;;;;;;5015753;28;20476;-72
2022/12/18 14:44:32;;;;;;;17.40;15.50;;;0.20;71.90;;;;;;5015627;28;20961;-71
2022/12/18 14:46:59;;;;;;;18.73;16.67;;;0.10;72.60;;;;;;5015668;28;20448;-70
2022/12/18 14:49:31;;;;;;;16.13;14.27;;;0.00;72.80;;;;;;5016200;28;20460;-72
2022/12/18 14:52:03;;;;;;;16.23;14.33;;;-0.30;73.10;;;;;;5015770;28;20468;-73
2022/12/18 14:54:33;;;;;;;15.90;14.20;;;-0.50;74.30;;;;;;5016007;28;20440;-72
2022/12/18 14:57:06;;;;;;;14.70;13.07;;;-0.60;74.80;;;;;;5016494;28;20480;-72
2022/12/18 14:59:38;;;;;;;16.20;13.60;;;-0.60;75.30;;;;;;5017387;28;20452;-73
2022/12/18 15:02:19;;;;;;;15.77;13.43;;;-0.60;75.10;;;;;;5017698;28;21068;-71
2022/12/18 15:04:46;;;;;;;19.20;15.90;;;-0.70;76.00;;;;;;5017394;28;20910;-71
2022/12/18 15:07:20;;;;;;;24.30;20.40;;;-0.50;75.40;;;;;;5015761;28;20459;-72
2022/12/18 15:10:03;;;;;;;19.67;17.17;;;-0.40;74.80;;;;;;5016239;28;20476;-73
2022/12/18 15:12:35;;;;;;;19.40;16.50;;;-0.40;74.80;;;;;;5016133;28;20503;-73
2022/12/18 15:15:02;;;;;;;18.00;16.10;;;-0.30;74.40;;;;;;5015799;28;20433;-74
2022/12/18 15:17:28;;;;;;;21.93;15.90;;;-0.30;74.20;;;;;;5015670;28;20491;-72
2022/12/18 15:20:02;;;;;;;14.47;13.07;;;-0.30;74.20;;;;;;5017364;28;20788;-73
2022/12/18 15:22:31;;;;;;;16.47;13.47;;;-0.30;74.10;;;;;;5017190;28;20477;-75
2022/12/18 15:24:59;;;;;;;17.93;16.23;;;-0.30;74.10;;;;;;5016175;28;20456;-73
2022/12/18 15:27:35;;;;;;;17.23;15.37;;;-0.50;74.70;;;;;;5015411;28;20447;-70
2022/12/18 15:30:26;;;;;;;18.93;15.57;;;-0.60;74.90;;;;;;5015885;28;20838;-73
2022/12/18 15:33:14;;;;;;;16.87;15.07;;;-0.60;74.80;;;;;;5017701;28;20921;-74
2022/12/18 15:35:40;;;;;;;21.50;16.30;;;-0.70;75.20;;;;;;5016980;28;20460;-73
2022/12/18 15:38:08;;;;;;;17.97;14.10;;;-0.70;75.50;;;;;;5016757;28;20488;-71
2022/12/18 15:40:35;;;;;;;17.40;15.13;;;-0.70;75.40;;;;;;5016368;28;20471;-72
2022/12/18 15:45:50;;;;;;;21.73;19.03;;;-0.70;75.10;;;;;;5015404;28;20921;-73
2022/12/18 15:48:22;;;;;;;18.13;16.03;;;-0.80;76.00;;;;;;5016095;28;20964;-72
2022/12/18 15:50:50;;;;;;;19.33;17.33;;;-0.80;75.40;;;;;;5016594;28;20483;-73
2022/12/18 15:53:17;;;;;;;17.90;16.00;;;-0.80;75.30;;;;;;5016088;28;20828;-72
2022/12/18 15:58:30;;;;;;;17.87;16.00;;;-0.70;74.80;;;;;;5015204;28;20834;-70
2022/12/18 16:01:00;;;;;;;19.47;15.67;;;-0.80;74.80;;;;;;5015318;28;20487;-72
2022/12/18 16:03:27;;;;;;;30.40;22.90;;;-0.80;74.70;;;;;;5017325;28;20418;-73
2022/12/18 16:05:54;;;;;;;18.77;15.60;;;-0.80;75.00;;;;;;5016555;28;20459;-72
2022/12/18 16:08:21;;;;;;;16.57;14.87;;;-0.90;75.30;;;;;;5015452;28;20459;-72
2022/12/18 16:10:47;;;;;;;17.80;15.67;;;-0.90;75.30;;;;;;5015209;28;20474;-71
2022/12/18 16:13:20;;;;;;;19.27;17.27;;;-0.80;75.50;;;;;;5015557;28;20462;-73
2022/12/18 16:15:48;;;;;;;18.43;16.57;;;-0.90;75.70;;;;;;5016824;28;20447;-73
2022/12/18 16:18:15;;;;;;;19.30;17.30;;;-0.90;76.00;;;;;;5016982;28;20579;-72
2022/12/18 16:20:42;;;;;;;19.17;16.00;;;-0.90;76.70;;;;;;5020011;28;20461;-70
2022/12/18 16:23:09;;;;;;;20.70;16.50;;;-0.90;77.00;;;;;;5020107;28;20441;-72
2022/12/18 16:25:39;;;;;;;21.07;16.90;;;-0.90;77.00;;;;;;5020064;28;20474;-74
2022/12/18 16:28:05;;;;;;;18.50;15.67;;;-0.90;77.10;;;;;;5020114;28;20448;-71
2022/12/18 16:30:33;;;;;;;20.40;16.00;;;-0.90;77.20;;;;;;5018588;28;20455;-71
2022/12/18 16:33:01;;;;;;;15.70;13.50;;;-0.90;77.30;;;;;;5019426;28;20487;-72
2022/12/18 16:35:32;;;;;;;15.70;13.50;;;-0.90;77.30;;;;;;5019108;28;20454;-74
2022/12/18 16:37:59;;;;;;;19.07;17.07;;;-0.90;77.30;;;;;;5018268;28;21051;-72
2022/12/18 16:40:25;;;;;;;16.13;13.90;;;-1.00;77.50;;;;;;5019348;28;20448;-71
2022/12/18 16:42:52;;;;;;;18.97;14.83;;;-1.10;77.90;;;;;;5018161;28;20452;-71
2022/12/18 16:45:19;;;;;;;18.20;15.50;;;-1.10;77.80;;;;;;5018541;28;20953;-71
2022/12/18 16:47:46;;;;;;;15.23;13.63;;;-1.20;78.10;;;;;;5018352;28;20460;-70
2022/12/18 16:50:14;;;;;;;17.37;15.33;;;-1.20;78.40;;;;;;5018736;28;20453;-71
2022/12/18 16:52:42;;;;;;;17.17;15.33;;;-1.20;78.30;;;;;;5019352;28;20468;-71
2022/12/18 16:55:10;;;;;;;17.10;15.30;;;-1.20;78.60;;;;;;5019383;28;20456;-70
2022/12/18 16:57:36;;;;;;;16.10;13.83;;;-1.10;78.60;;;;;;5019494;28;20484;-69
2022/12/18 17:00:05;;;;;;;16.27;14.63;;;-1.00;78.50;;;;;;5019299;28;20453;-70